Time;durP1;ratioP1;P1;durP2;ratioP2;P2;SDS_P1;SDS_P2;PMS_P1;PMS_P2;Temp;Humidity;BMP_temperature;BMP_pressure;BME280_temperature;BME280_humidity;BME280_pressure;Samples;Min_cycle;Max_cycle;Signal;HPM_P1;HPM_P2
2022/06/28 00:02:06;;;;;;;4.77;4.23;;;14.30;99.90;;;;;;5029551;28;20645;-38
2022/06/28 00:04:32;;;;;;;5.10;4.60;;;14.20;99.90;;;;;;5030337;28;20205;-37
2022/06/28 00:06:58;;;;;;;4.47;4.07;;;14.00;99.90;;;;;;5029679;28;20657;-37
2022/06/28 00:09:24;;;;;;;5.10;4.60;;;13.90;99.90;;;;;;5030093;28;20716;-38
2022/06/28 00:11:50;;;;;;;8.63;6.03;;;13.70;99.90;;;;;;5030276;28;20429;-37
2022/06/28 00:17:01;;;;;;;6.70;5.37;;;13.70;99.90;;;;;;5029487;28;20542;-37
2022/06/28 00:19:27;;;;;;;6.13;5.53;;;13.80;99.90;;;;;;5030215;28;20960;-38
2022/06/28 00:21:53;;;;;;;8.07;5.87;;;13.90;99.90;;;;;;5030262;28;20444;-37
2022/06/28 00:24:19;;;;;;;6.30;5.70;;;14.10;99.90;;;;;;5030069;28;20562;-37
2022/06/28 00:26:45;;;;;;;5.93;5.43;;;14.10;99.90;;;;;;5029456;28;20420;-37
2022/06/28 00:29:11;;;;;;;6.73;5.20;;;14.10;99.90;;;;;;5029667;28;20214;-38
2022/06/28 00:31:37;;;;;;;6.67;5.53;;;14.10;99.90;;;;;;5028722;28;20850;-37
2022/06/28 00:34:03;;;;;;;6.77;6.17;;;14.20;99.90;;;;;;5028449;28;20186;-37
2022/06/28 00:36:29;;;;;;;6.40;5.50;;;14.20;99.90;;;;;;5029716;28;20191;-37
2022/06/28 00:38:55;;;;;;;5.60;4.60;;;14.10;99.90;;;;;;5029366;28;20426;-37
2022/06/28 00:41:21;;;;;;;5.63;5.10;;;14.10;99.90;;;;;;5029734;28;20201;-38
2022/06/28 00:43:47;;;;;;;5.67;5.17;;;14.00;99.90;;;;;;5029631;28;20197;-37
2022/06/28 00:46:13;;;;;;;5.13;4.73;;;14.00;99.90;;;;;;5029823;28;20516;-38
2022/06/28 00:48:39;;;;;;;6.53;5.80;;;13.80;99.90;;;;;;5029128;28;20469;-37
2022/06/28 00:51:07;;;;;;;5.93;5.30;;;13.70;99.90;;;;;;5032538;28;20463;-38
2022/06/28 00:53:33;;;;;;;6.73;6.13;;;13.70;99.90;;;;;;5033874;28;20182;-38
2022/06/28 00:55:59;;;;;;;7.20;6.50;;;13.60;99.90;;;;;;5033838;28;20435;-38
2022/06/28 00:58:24;;;;;;;6.93;6.20;;;13.70;99.90;;;;;;5031715;28;20237;-38
2022/06/28 01:00:50;;;;;;;6.10;5.50;;;13.70;99.90;;;;;;5033926;28;20205;-37
2022/06/28 01:03:19;;;;;;;6.50;5.50;;;13.80;99.90;;;;;;5033557;28;20688;-37
2022/06/28 01:05:45;;;;;;;6.90;6.20;;;13.80;99.90;;;;;;5033751;28;20194;-37
2022/06/28 01:08:12;;;;;;;15.60;5.93;;;14.00;99.90;;;;;;5032781;28;20842;-38
2022/06/28 01:10:39;;;;;;;7.13;6.50;;;14.00;99.90;;;;;;5033609;28;20556;-38
2022/06/28 01:13:05;;;;;;;7.70;6.17;;;14.10;99.90;;;;;;5033176;28;20429;-38
2022/06/28 01:15:32;;;;;;;5.40;4.90;;;14.10;99.90;;;;;;5033567;28;20437;-38
2022/06/28 01:18:02;;;;;;;8.47;6.33;;;14.10;99.90;;;;;;5032701;28;20424;-38
2022/06/28 01:20:28;;;;;;;8.33;5.90;;;14.10;99.90;;;;;;5033416;28;20470;-37
2022/06/28 01:22:54;;;;;;;8.50;5.50;;;14.20;99.90;;;;;;5033301;28;20429;-38
2022/06/28 01:25:22;;;;;;;5.67;5.17;;;14.10;99.90;;;;;;5033449;28;20946;-37
2022/06/28 01:27:49;;;;;;;6.33;5.37;;;14.10;99.90;;;;;;5032433;28;21069;-39
2022/06/28 01:30:15;;;;;;;9.20;6.63;;;14.10;99.90;;;;;;5033220;28;20473;-37
2022/06/28 01:32:41;;;;;;;8.00;6.40;;;14.10;99.90;;;;;;5033149;28;20425;-38
2022/06/28 01:35:08;;;;;;;8.77;6.60;;;14.10;99.90;;;;;;5031617;28;20441;-38
2022/06/28 01:37:35;;;;;;;9.40;7.70;;;14.10;99.90;;;;;;5032383;28;20927;-37
2022/06/28 01:40:02;;;;;;;7.83;6.23;;;14.10;99.90;;;;;;5032816;28;20437;-38
2022/06/28 01:42:28;;;;;;;7.30;6.50;;;13.90;99.90;;;;;;5033117;28;20911;-37
2022/06/28 01:44:56;;;;;;;7.10;6.50;;;13.90;99.90;;;;;;5032966;28;20467;-37
2022/06/28 01:47:24;;;;;;;7.83;6.60;;;13.80;99.90;;;;;;5032547;28;21007;-37
2022/06/28 01:49:50;;;;;;;8.43;6.63;;;13.80;99.90;;;;;;5032613;28;20964;-37
2022/06/28 01:52:16;;;;;;;7.53;6.70;;;13.90;99.90;;;;;;5032903;28;20482;-38
2022/06/28 01:54:42;;;;;;;7.47;6.73;;;13.90;99.90;;;;;;5032613;28;20427;-38
2022/06/28 01:57:08;;;;;;;7.80;6.93;;;13.90;99.90;;;;;;5032045;28;20444;-38
2022/06/28 01:59:34;;;;;;;7.80;7.10;;;13.80;99.90;;;;;;5032607;28;20445;-38
2022/06/28 02:02:00;;;;;;;6.23;5.73;;;13.80;99.90;;;;;;5032210;28;20779;-38
2022/06/28 02:04:27;;;;;;;7.50;5.80;;;13.80;99.90;;;;;;5032699;28;20551;-38
2022/06/28 02:06:54;;;;;;;7.00;5.50;;;13.70;99.90;;;;;;5031765;28;20202;-38
2022/06/28 02:09:20;;;;;;;6.20;5.60;;;13.70;99.90;;;;;;5032247;28;20468;-38
2022/06/28 02:11:46;;;;;;;6.30;5.80;;;13.70;99.90;;;;;;5032366;28;20433;-38
2022/06/28 02:14:11;;;;;;;6.93;6.13;;;13.70;99.90;;;;;;5032511;28;20791;-37
2022/06/28 02:16:37;;;;;;;7.00;6.40;;;13.80;99.90;;;;;;5031805;28;20551;-38
2022/06/28 02:19:03;;;;;;;6.77;6.27;;;13.80;99.90;;;;;;5032273;28;20194;-37
2022/06/28 02:21:36;;;;;;;8.20;6.90;;;13.90;99.90;;;;;;5032889;28;21005;-37
2022/06/28 02:24:02;;;;;;;7.07;6.37;;;13.90;99.90;;;;;;5032077;28;20443;-38
2022/06/28 02:26:27;;;;;;;8.10;6.07;;;13.90;99.90;;;;;;5032221;28;20483;-38
2022/06/28 02:28:53;;;;;;;7.43;6.60;;;13.80;99.90;;;;;;5031507;28;20469;-37
2022/06/28 02:31:19;;;;;;;7.37;5.93;;;13.80;99.90;;;;;;5032144;28;20753;-37
2022/06/28 02:33:45;;;;;;;6.50;6.00;;;13.80;99.90;;;;;;5030436;28;20190;-38
2022/06/28 02:41:39;;;;;;;7.70;6.90;;;13.80;99.90;;;;;;5032077;28;20429;-37
2022/06/28 02:44:05;;;;;;;7.83;7.03;;;13.80;99.90;;;;;;5031758;28;20447;-37
2022/06/28 02:46:31;;;;;;;10.60;8.10;;;13.80;99.90;;;;;;5031848;28;20231;-37
2022/06/28 02:48:57;;;;;;;7.83;7.03;;;13.80;99.90;;;;;;5031109;28;20461;-38
2022/06/28 02:51:23;;;;;;;8.40;7.60;;;13.80;99.90;;;;;;5031837;28;20492;-37
2022/06/28 02:53:49;;;;;;;7.17;6.47;;;13.70;99.90;;;;;;5031761;28;20207;-37
2022/06/28 02:56:15;;;;;;;7.40;6.73;;;13.70;99.90;;;;;;5031588;28;20429;-37
2022/06/28 02:58:40;;;;;;;7.47;6.77;;;13.60;99.90;;;;;;5030845;28;20444;-38
2022/06/28 03:01:06;;;;;;;8.03;6.80;;;13.60;99.90;;;;;;5031536;28;20441;-38
2022/06/28 03:03:32;;;;;;;9.53;7.27;;;13.60;99.90;;;;;;5031288;28;20655;-38
2022/06/28 03:05:58;;;;;;;8.60;7.60;;;13.60;99.90;;;;;;5031490;28;20186;-38
2022/06/28 03:08:24;;;;;;;8.73;7.13;;;13.60;99.90;;;;;;5030777;28;20432;-37
2022/06/28 03:10:49;;;;;;;7.57;6.97;;;13.60;99.90;;;;;;5031238;28;20175;-38
2022/06/28 03:13:15;;;;;;;7.97;7.17;;;13.60;99.90;;;;;;5030658;28;20425;-38
2022/06/28 03:15:41;;;;;;;6.63;6.03;;;13.50;99.90;;;;;;5031308;28;20191;-37
2022/06/28 03:18:07;;;;;;;8.50;6.67;;;13.60;99.90;;;;;;5030362;28;20196;-37
2022/06/28 03:20:33;;;;;;;7.30;6.60;;;13.70;99.90;;;;;;5031424;28;20779;-38
2022/06/28 03:22:58;;;;;;;7.30;6.43;;;13.70;99.90;;;;;;5044036;28;20190;-37
2022/06/28 03:25:24;;;;;;;6.00;5.40;;;13.70;99.90;;;;;;5031271;28;20256;-37
2022/06/28 03:27:50;;;;;;;7.77;6.53;;;13.70;99.90;;;;;;5030367;28;20668;-37
2022/06/28 03:30:16;;;;;;;7.23;6.57;;;13.80;99.90;;;;;;5029757;28;20242;-38
2022/06/28 03:32:42;;;;;;;6.57;5.97;;;13.80;99.90;;;;;;5030543;28;20480;-38
2022/06/28 03:35:08;;;;;;;6.40;5.80;;;13.80;99.90;;;;;;5030194;28;20181;-37
2022/06/28 03:37:35;;;;;;;7.20;6.50;;;13.80;99.90;;;;;;5029995;28;20231;-37
2022/06/28 03:40:02;;;;;;;7.00;6.40;;;13.80;99.90;;;;;;5030883;28;20424;-38
2022/06/28 03:42:28;;;;;;;9.17;5.90;;;13.80;99.90;;;;;;5030828;28;20421;-38
2022/06/28 03:44:53;;;;;;;6.37;5.50;;;13.80;99.90;;;;;;5030665;28;20437;-38
2022/06/28 03:47:19;;;;;;;5.90;5.40;;;13.80;99.90;;;;;;5029957;28;20191;-37
2022/06/28 03:49:47;;;;;;;6.63;6.07;;;13.80;99.90;;;;;;5030039;28;20222;-38
2022/06/28 03:52:13;;;;;;;7.23;6.13;;;13.80;99.90;;;;;;5030613;28;20277;-37
2022/06/28 03:54:39;;;;;;;6.77;5.53;;;13.80;99.90;;;;;;5030457;28;20429;-37
2022/06/28 03:57:05;;;;;;;6.90;6.30;;;13.80;99.90;;;;;;5028732;28;20502;-37
2022/06/28 03:59:31;;;;;;;5.77;5.27;;;13.80;99.90;;;;;;5030345;28;20277;-38
2022/06/28 04:01:57;;;;;;;6.20;5.60;;;13.70;99.90;;;;;;5030241;28;20429;-38
2022/06/28 04:04:22;;;;;;;6.37;5.77;;;13.70;99.90;;;;;;5030489;28;20194;-38
2022/06/28 04:06:48;;;;;;;6.57;5.60;;;13.80;99.90;;;;;;5029663;28;20194;-38
2022/06/28 04:09:14;;;;;;;7.30;6.60;;;13.80;99.90;;;;;;5030469;28;20225;-37
2022/06/28 04:11:39;;;;;;;6.93;5.90;;;13.80;99.90;;;;;;5030204;28;20273;-37
2022/06/28 04:14:05;;;;;;;6.47;5.87;;;13.90;99.90;;;;;;5030374;28;20187;-37
2022/06/28 04:16:32;;;;;;;7.03;6.37;;;13.90;99.90;;;;;;5028455;28;20186;-37
2022/06/28 04:18:58;;;;;;;9.73;7.73;;;13.90;99.90;;;;;;5030140;28;20182;-38
2022/06/28 04:21:24;;;;;;;7.93;6.57;;;14.10;99.90;;;;;;5030546;28;20468;-38
2022/06/28 04:23:50;;;;;;;7.20;6.43;;;14.10;99.90;;;;;;5030096;28;20461;-38
2022/06/28 04:26:15;;;;;;;8.53;7.03;;;14.10;99.90;;;;;;5029959;28;20262;-38
2022/06/28 04:28:41;;;;;;;7.70;6.50;;;14.10;99.90;;;;;;5028242;28;20700;-37
2022/06/28 04:31:08;;;;;;;7.20;6.50;;;14.10;99.90;;;;;;5029913;28;20191;-37
2022/06/28 04:33:34;;;;;;;8.93;6.30;;;14.20;99.90;;;;;;5028418;28;20456;-37
2022/06/28 04:36:00;;;;;;;6.50;5.80;;;14.10;99.90;;;;;;5029799;28;20437;-38
2022/06/28 04:38:26;;;;;;;7.17;6.50;;;14.20;99.90;;;;;;5029358;28;20418;-37
2022/06/28 04:40:52;;;;;;;7.10;6.40;;;14.20;99.90;;;;;;5008920;28;20434;-38
2022/06/28 04:43:17;;;;;;;6.83;6.10;;;14.20;99.90;;;;;;5021402;28;20586;-38
2022/06/28 04:45:43;;;;;;;7.87;5.70;;;14.20;99.90;;;;;;5029793;28;20198;-38
2022/06/28 04:48:09;;;;;;;7.63;6.87;;;14.30;99.90;;;;;;5033480;28;20221;-37
2022/06/28 04:50:34;;;;;;;7.70;6.60;;;14.40;99.90;;;;;;5026352;28;20279;-37
2022/06/28 04:53:01;;;;;;;9.00;7.57;;;14.40;99.90;;;;;;5027322;28;20277;-37
2022/06/28 04:55:26;;;;;;;7.73;6.80;;;14.50;99.90;;;;;;5029661;28;20185;-37
2022/06/28 04:57:52;;;;;;;9.10;7.20;;;14.60;99.90;;;;;;5027653;28;20527;-37
2022/06/28 05:00:18;;;;;;;7.50;6.43;;;14.60;99.90;;;;;;5029334;28;20205;-37
2022/06/28 05:02:44;;;;;;;8.27;7.47;;;14.70;99.90;;;;;;5029779;28;20186;-37
2022/06/28 05:05:10;;;;;;;10.37;8.47;;;14.80;99.90;;;;;;5029523;28;20429;-38
2022/06/28 05:07:37;;;;;;;8.23;7.37;;;14.90;99.90;;;;;;5029184;28;20186;-38
2022/06/28 05:10:04;;;;;;;8.27;7.33;;;15.10;99.90;;;;;;5029362;28;20464;-38
2022/06/28 05:12:30;;;;;;;10.00;7.33;;;15.20;99.90;;;;;;5029523;28;20417;-38
2022/06/28 05:14:56;;;;;;;8.47;6.63;;;15.30;99.90;;;;;;5029315;28;20432;-37
2022/06/28 05:17:21;;;;;;;7.93;7.23;;;15.40;99.90;;;;;;5029067;28;20277;-38
2022/06/28 05:19:48;;;;;;;8.63;7.40;;;15.50;99.90;;;;;;5029486;28;20195;-38
2022/06/28 05:22:14;;;;;;;7.97;7.00;;;15.60;99.90;;;;;;5040491;28;20247;-38
2022/06/28 05:24:40;;;;;;;10.47;7.20;;;15.60;99.90;;;;;;5030314;28;20425;-38
2022/06/28 05:27:06;;;;;;;8.17;7.33;;;15.70;99.90;;;;;;5028692;28;20938;-38
2022/06/28 05:29:32;;;;;;;10.10;8.20;;;15.70;99.90;;;;;;5028101;28;20488;-37
2022/06/28 05:31:59;;;;;;;8.00;7.20;;;15.80;99.90;;;;;;5026298;28;20190;-38
2022/06/28 05:34:25;;;;;;;7.80;7.10;;;15.90;99.90;;;;;;5028549;28;20434;-38
2022/06/28 05:36:51;;;;;;;7.10;6.40;;;16.00;99.90;;;;;;5030651;28;20432;-38
2022/06/28 05:39:17;;;;;;;10.43;7.10;;;16.10;99.90;;;;;;5033193;28;20425;-37
2022/06/28 05:41:43;;;;;;;8.30;6.90;;;16.20;99.90;;;;;;5032925;28;20441;-37
2022/06/28 05:44:10;;;;;;;10.60;6.80;;;16.30;99.90;;;;;;5031233;28;20919;-37
2022/06/28 05:46:36;;;;;;;9.10;6.17;;;16.40;99.90;;;;;;5025643;28;20425;-37
2022/06/28 05:49:02;;;;;;;7.67;6.70;;;16.50;99.90;;;;;;5024447;28;20564;-37
2022/06/28 05:51:29;;;;;;;7.47;5.73;;;16.60;99.90;;;;;;5019974;28;20414;-38
2022/06/28 05:53:58;;;;;;;5.93;5.27;;;16.70;99.90;;;;;;5022362;28;20433;-38
2022/06/28 05:56:24;;;;;;;6.67;5.03;;;16.90;99.90;;;;;;5032551;28;20951;-38
2022/06/28 05:58:50;;;;;;;5.90;5.30;;;17.00;99.90;;;;;;5032106;28;20471;-37
2022/06/28 06:01:15;;;;;;;5.63;5.03;;;17.10;99.90;;;;;;5032748;28;20194;-38
2022/06/28 06:03:41;;;;;;;5.80;5.30;;;17.30;99.90;;;;;;5032488;28;20673;-37
2022/06/28 06:06:07;;;;;;;6.03;5.43;;;17.40;99.90;;;;;;5030797;28;20194;-37
2022/06/28 06:08:35;;;;;;;8.47;5.50;;;17.50;99.90;;;;;;5025633;28;20634;-38
2022/06/28 06:11:02;;;;;;;7.53;5.80;;;17.60;99.90;;;;;;5032032;28;20178;-38
2022/06/28 06:13:27;;;;;;;6.23;5.20;;;17.70;99.90;;;;;;5019411;28;20425;-39
2022/06/28 06:15:53;;;;;;;4.73;4.00;;;17.70;99.90;;;;;;5032338;28;20424;-38
2022/06/28 06:18:19;;;;;;;5.30;4.17;;;17.80;99.90;;;;;;5031861;28;20193;-38
2022/06/28 06:20:45;;;;;;;6.10;4.97;;;18.00;99.90;;;;;;5032209;28;20195;-38
2022/06/28 06:23:10;;;;;;;6.67;4.20;;;18.00;99.90;;;;;;5030641;28;20206;-38
2022/06/28 06:25:36;;;;;;;5.30;4.13;;;18.20;99.90;;;;;;5031921;28;20186;-38
2022/06/28 06:28:02;;;;;;;5.10;4.60;;;18.30;99.90;;;;;;5031071;28;20240;-38
2022/06/28 06:30:27;;;;;;;5.17;4.17;;;18.50;99.90;;;;;;5024724;28;20210;-38
2022/06/28 06:32:53;;;;;;;5.90;3.77;;;18.50;99.90;;;;;;5031274;28;20272;-38
2022/06/28 06:35:19;;;;;;;4.07;3.53;;;18.60;99.90;;;;;;5031257;28;20194;-38
2022/06/28 06:37:44;;;;;;;8.10;3.60;;;18.70;99.90;;;;;;5031046;28;20260;-38
2022/06/28 06:40:11;;;;;;;4.97;3.40;;;18.80;99.90;;;;;;5031951;28;20194;-38
2022/06/28 06:42:36;;;;;;;4.80;3.70;;;18.90;99.90;;;;;;5032010;28;20201;-38
2022/06/28 06:45:02;;;;;;;3.90;3.60;;;18.90;99.90;;;;;;5031788;28;20429;-37
2022/06/28 06:47:28;;;;;;;4.00;2.77;;;18.90;99.90;;;;;;5029989;28;20701;-38
2022/06/28 06:49:54;;;;;;;4.33;3.27;;;18.90;99.90;;;;;;5029507;28;20563;-38
2022/06/28 06:52:19;;;;;;;3.20;2.17;;;19.00;99.90;;;;;;5026136;28;20186;-37
2022/06/28 06:54:45;;;;;;;2.80;2.60;;;19.10;99.90;;;;;;5023291;28;20540;-38
2022/06/28 06:57:11;;;;;;;2.70;2.17;;;19.20;99.90;;;;;;5027155;28;20198;-38
2022/06/28 06:59:37;;;;;;;2.20;1.73;;;19.30;99.90;;;;;;5022620;28;20638;-37
2022/06/28 07:02:02;;;;;;;3.43;2.27;;;19.40;99.90;;;;;;5025640;28;20213;-38
2022/06/28 07:04:29;;;;;;;5.00;2.57;;;19.40;99.90;;;;;;5031534;28;20273;-38
2022/06/28 07:06:56;;;;;;;4.83;2.23;;;19.40;99.90;;;;;;5030539;28;20433;-38
2022/06/28 07:09:23;;;;;;;2.40;2.20;;;19.50;99.90;;;;;;5031063;28;20468;-38
2022/06/28 07:11:49;;;;;;;5.23;2.40;;;19.60;99.90;;;;;;5031437;28;20436;-37
2022/06/28 07:14:15;;;;;;;4.23;3.23;;;19.70;99.90;;;;;;5031548;28;20887;-38
2022/06/28 07:16:41;;;;;;;3.00;2.40;;;19.90;99.90;;;;;;5030781;28;20425;-37
2022/06/28 07:19:07;;;;;;;3.60;2.30;;;19.90;99.90;;;;;;5031066;28;20195;-38
2022/06/28 07:21:33;;;;;;;3.47;2.70;;;19.90;99.90;;;;;;5031358;28;20187;-38
2022/06/28 07:23:58;;;;;;;2.70;2.43;;;20.00;99.90;;;;;;5022872;28;20209;-38
2022/06/28 07:26:24;;;;;;;3.70;2.60;;;19.90;99.90;;;;;;5026103;28;20620;-37
2022/06/28 07:28:50;;;;;;;4.40;2.37;;;20.00;99.90;;;;;;5013407;28;20693;-38
2022/06/28 07:31:16;;;;;;;3.50;2.10;;;20.10;99.90;;;;;;5030254;28;20252;-38
2022/06/28 07:33:42;;;;;;;4.90;3.03;;;20.10;99.90;;;;;;5030163;28;20194;-38
2022/06/28 07:36:08;;;;;;;4.23;2.33;;;20.20;99.90;;;;;;5021639;28;20207;-38
2022/06/28 07:38:34;;;;;;;3.57;2.50;;;20.20;99.90;;;;;;5023010;28;20512;-38
2022/06/28 07:41:00;;;;;;;3.30;2.50;;;20.30;99.90;;;;;;5030289;28;21043;-38
2022/06/28 07:43:26;;;;;;;2.13;1.60;;;20.30;99.90;;;;;;5030908;28;20189;-38
2022/06/28 07:45:52;;;;;;;3.10;1.70;;;20.40;99.90;;;;;;5030718;28;20241;-38
2022/06/28 07:48:19;;;;;;;2.60;1.37;;;20.40;99.90;;;;;;5030118;28;20273;-38
2022/06/28 07:53:33;;;;;;;4.30;1.50;;;20.40;99.90;;;;;;5029189;28;20457;-38
2022/06/28 07:56:00;;;;;;;1.77;1.10;;;20.50;99.90;;;;;;5030701;28;20429;-39
2022/06/28 07:58:25;;;;;;;2.87;1.67;;;20.50;99.90;;;;;;5029707;28;20421;-38
2022/06/28 08:00:52;;;;;;;2.47;1.53;;;20.50;99.90;;;;;;5015325;28;21317;-38
2022/06/28 08:03:17;;;;;;;2.57;1.70;;;20.50;99.90;;;;;;5026526;28;20262;-37
2022/06/28 08:05:43;;;;;;;4.83;1.30;;;20.50;99.90;;;;;;5030163;28;20425;-38
2022/06/28 08:08:10;;;;;;;3.80;1.53;;;20.60;99.90;;;;;;5029568;28;20221;-37
2022/06/28 08:10:35;;;;;;;3.10;1.30;;;20.60;99.90;;;;;;5020269;28;20897;-38
2022/06/28 08:13:01;;;;;;;1.53;1.27;;;20.50;99.90;;;;;;5030409;28;20453;-38
2022/06/28 08:15:27;;;;;;;4.13;1.47;;;20.40;99.90;;;;;;5030304;28;20286;-38
2022/06/28 08:17:54;;;;;;;5.23;1.50;;;20.30;99.90;;;;;;5029522;28;20520;-38
2022/06/28 08:20:20;;;;;;;3.90;1.63;;;20.20;99.90;;;;;;5029999;28;20220;-37
2022/06/28 08:22:46;;;;;;;2.50;1.27;;;20.20;99.90;;;;;;5043691;28;20452;-38
2022/06/28 08:25:11;;;;;;;2.50;1.80;;;20.20;99.90;;;;;;5030274;28;20920;-38
2022/06/28 08:27:37;;;;;;;3.60;1.70;;;20.30;99.90;;;;;;5029476;28;20278;-38
2022/06/28 08:30:05;;;;;;;4.77;1.97;;;20.30;99.90;;;;;;5029957;28;20218;-38
2022/06/28 08:32:30;;;;;;;1.93;1.40;;;20.40;99.90;;;;;;5028522;28;20654;-38
2022/06/28 08:34:56;;;;;;;4.00;2.03;;;20.50;99.90;;;;;;5028952;28;20512;-39
2022/06/28 08:37:22;;;;;;;7.33;2.33;;;20.60;99.90;;;;;;5029389;28;20187;-38
2022/06/28 08:39:48;;;;;;;3.13;1.90;;;20.70;99.90;;;;;;5029948;28;20557;-38
2022/06/28 08:42:18;;;;;;;1.87;1.67;;;20.70;99.90;;;;;;5029774;28;20667;-38
2022/06/28 08:44:47;;;;;;;3.00;2.00;;;20.70;99.90;;;;;;5030021;28;20194;-38
2022/06/28 08:47:14;;;;;;;3.27;2.17;;;20.80;99.90;;;;;;5028982;28;20421;-38
2022/06/28 08:49:46;;;;;;;3.50;1.70;;;20.80;99.90;;;;;;5029706;28;20576;-38
2022/06/28 08:52:14;;;;;;;6.13;1.83;;;20.80;99.90;;;;;;5029933;28;20428;-38
2022/06/28 08:54:41;;;;;;;2.00;1.67;;;20.80;99.90;;;;;;5029995;28;20508;-38
2022/06/28 08:57:07;;;;;;;4.83;1.97;;;20.90;99.90;;;;;;5028970;28;20432;-38
2022/06/28 08:59:34;;;;;;;4.20;1.97;;;21.00;99.90;;;;;;5029783;28;20449;-38
2022/06/28 09:02:03;;;;;;;4.90;1.43;;;20.90;99.90;;;;;;5029452;28;20432;-37
2022/06/28 09:04:32;;;;;;;2.53;1.87;;;20.90;99.90;;;;;;5029724;28;20429;-38
2022/06/28 09:06:58;;;;;;;3.13;1.80;;;21.00;99.90;;;;;;5028897;28;20455;-38
2022/06/28 09:09:24;;;;;;;3.70;2.10;;;21.00;99.90;;;;;;5029606;28;21056;-38
2022/06/28 09:11:52;;;;;;;4.13;1.57;;;21.20;99.90;;;;;;5031984;28;20453;-38
2022/06/28 09:14:31;;;;;;;2.10;1.53;;;21.30;99.90;;;;;;5033295;28;20182;-38
2022/06/28 09:16:58;;;;;;;3.67;2.60;;;21.40;99.90;;;;;;5032953;28;20421;-38
2022/06/28 09:19:38;;;;;;;3.10;1.63;;;21.60;99.90;;;;;;5033403;28;20421;-38
2022/06/28 09:22:04;;;;;;;2.90;1.80;;;21.70;99.90;;;;;;5033872;28;20441;-38
2022/06/28 09:24:31;;;;;;;3.97;1.67;;;21.70;99.80;;;;;;5033294;28;20491;-38
2022/06/28 09:27:04;;;;;;;3.13;1.50;;;21.70;99.90;;;;;;5032626;28;20520;-37
2022/06/28 09:29:44;;;;;;;2.70;1.70;;;21.70;99.90;;;;;;5033172;28;20457;-37
2022/06/28 09:32:10;;;;;;;4.30;1.67;;;21.80;99.90;;;;;;5033363;28;20475;-37
2022/06/28 09:34:40;;;;;;;5.40;1.90;;;21.70;99.90;;;;;;5032255;28;20968;-38
2022/06/28 09:37:06;;;;;;;3.10;1.47;;;21.80;99.90;;;;;;5032544;28;20205;-38
2022/06/28 09:39:31;;;;;;;3.70;1.73;;;21.90;99.90;;;;;;5032963;28;20437;-38
2022/06/28 09:41:59;;;;;;;3.40;1.80;;;22.10;99.70;;;;;;5033141;28;20539;-38
2022/06/28 09:44:28;;;;;;;2.30;1.33;;;22.10;99.20;;;;;;5031588;28;20198;-38
2022/06/28 09:46:57;;;;;;;2.63;1.60;;;22.20;99.90;;;;;;5032410;28;20424;-38
2022/06/28 09:49:28;;;;;;;2.90;1.83;;;22.30;98.30;;;;;;5032991;28;20522;-38
2022/06/28 09:51:56;;;;;;;3.70;1.53;;;22.30;97.00;;;;;;5032579;28;20437;-38
2022/06/28 09:54:26;;;;;;;1.90;1.60;;;22.30;97.70;;;;;;5032962;28;20413;-38
2022/06/28 09:56:54;;;;;;;3.53;1.40;;;22.30;97.60;;;;;;5032068;28;20429;-38
2022/06/28 09:59:22;;;;;;;3.03;1.50;;;22.30;98.60;;;;;;5032725;28;20445;-38
2022/06/28 10:01:48;;;;;;;4.60;1.40;;;22.40;99.40;;;;;;5032563;28;20483;-38
2022/06/28 10:04:14;;;;;;;1.60;1.33;;;22.40;97.50;;;;;;5031260;28;20429;-38
2022/06/28 10:06:41;;;;;;;3.43;1.37;;;22.50;98.60;;;;;;5032108;28;20524;-38
2022/06/28 10:09:06;;;;;;;2.03;1.70;;;22.60;96.70;;;;;;5032585;28;20210;-38
2022/06/28 10:15:01;;;;;;;2.37;1.50;;;22.50;96.20;;;;;;5032374;28;20969;-38
2022/06/28 10:17:39;;;;;;;3.53;1.60;;;22.60;96.90;;;;;;5031714;28;20429;-38
2022/06/28 10:20:08;;;;;;;1.83;1.27;;;22.70;95.80;;;;;;5032383;28;20555;-38
2022/06/28 10:22:34;;;;;;;2.10;1.30;;;22.90;95.50;;;;;;5032112;28;20429;-38
2022/06/28 10:25:02;;;;;;;3.13;1.13;;;23.00;96.00;;;;;;5032179;28;20491;-38
2022/06/28 10:27:28;;;;;;;1.70;1.10;;;23.00;95.90;;;;;;5031491;28;20653;-37
2022/06/28 10:30:00;;;;;;;3.90;1.47;;;23.10;94.40;;;;;;5032087;28;20478;-38
2022/06/28 10:32:39;;;;;;;2.80;1.27;;;23.10;94.80;;;;;;5030836;28;20787;-37
2022/06/28 10:35:05;;;;;;;1.90;1.30;;;23.10;94.60;;;;;;5031264;28;20425;-38
2022/06/28 10:37:31;;;;;;;1.70;1.10;;;22.90;95.10;;;;;;5031344;28;20432;-38
2022/06/28 10:40:24;;;;;;;2.60;1.30;;;22.70;95.70;;;;;;5031841;28;20429;-38
2022/06/28 10:42:52;;;;;;;1.77;1.23;;;22.70;96.00;;;;;;5031962;28;20520;-38
2022/06/28 10:45:20;;;;;;;3.17;1.70;;;22.80;95.50;;;;;;5031780;28;21136;-38
2022/06/28 10:48:09;;;;;;;2.63;1.33;;;22.90;95.30;;;;;;5031407;28;20567;-38
2022/06/28 10:51:01;;;;;;;3.10;1.70;;;23.00;95.80;;;;;;5031575;28;20567;-38
2022/06/28 10:53:31;;;;;;;1.10;1.00;;;23.10;94.80;;;;;;5031743;28;20425;-38
2022/06/28 10:56:12;;;;;;;1.60;0.90;;;23.10;94.10;;;;;;5031750;28;20464;-38
2022/06/28 10:59:14;;;;;;;2.90;1.57;;;23.20;92.90;;;;;;5030962;28;20440;-38
2022/06/28 11:01:40;;;;;;;2.07;1.20;;;23.20;94.00;;;;;;5031401;28;20455;-38
2022/06/28 11:04:13;;;;;;;2.87;1.40;;;23.30;92.90;;;;;;5031562;28;20421;-38
2022/06/28 11:06:43;;;;;;;3.27;1.37;;;23.40;93.40;;;;;;5030705;28;20244;-38
2022/06/28 11:09:18;;;;;;;3.70;1.67;;;23.30;92.80;;;;;;5031252;28;20476;-37
2022/06/28 11:12:11;;;;;;;1.47;1.13;;;23.30;93.70;;;;;;5031254;28;20508;-37
2022/06/28 11:14:58;;;;;;;2.00;1.53;;;23.40;93.50;;;;;;5031348;28;20764;-38
2022/06/28 11:17:32;;;;;;;3.77;1.60;;;23.50;92.30;;;;;;5030722;28;20420;-38
2022/06/28 11:20:03;;;;;;;2.00;1.23;;;23.60;92.30;;;;;;5029858;28;21151;-38
2022/06/28 11:22:30;;;;;;;1.63;1.30;;;23.60;93.00;;;;;;5031162;28;20443;-38
2022/06/28 11:24:58;;;;;;;2.63;1.83;;;23.70;92.30;;;;;;5031150;28;20433;-38
2022/06/28 11:27:24;;;;;;;1.73;0.90;;;23.70;93.10;;;;;;5030559;28;20440;-38
2022/06/28 11:29:59;;;;;;;1.50;1.40;;;23.70;93.10;;;;;;5030799;28;20465;-38
2022/06/28 11:32:30;;;;;;;3.13;1.50;;;23.50;91.90;;;;;;5030927;28;20911;-38
2022/06/28 11:35:01;;;;;;;1.53;1.10;;;23.50;93.90;;;;;;5029627;28;20421;-38
2022/06/28 11:37:28;;;;;;;1.87;1.10;;;23.40;93.80;;;;;;5030212;28;20923;-38
2022/06/28 11:39:55;;;;;;;1.70;1.00;;;23.50;92.40;;;;;;5030942;28;20429;-38
2022/06/28 11:42:21;;;;;;;1.70;1.07;;;23.70;92.40;;;;;;5029394;28;20437;-38
2022/06/28 11:44:48;;;;;;;5.73;1.20;;;24.00;91.90;;;;;;5030720;28;20449;-38
2022/06/28 11:47:16;;;;;;;1.80;1.00;;;23.90;90.30;;;;;;5030170;28;20202;-38
2022/06/28 11:49:42;;;;;;;1.40;1.00;;;24.00;91.90;;;;;;5030685;28;20827;-38
2022/06/28 11:52:14;;;;;;;1.40;1.20;;;24.10;93.00;;;;;;5029464;28;20431;-38
2022/06/28 11:54:43;;;;;;;2.13;1.30;;;24.10;90.40;;;;;;5029058;28;20468;-38
2022/06/28 11:57:16;;;;;;;3.73;1.10;;;24.20;90.50;;;;;;5028750;28;20475;-38
2022/06/28 11:59:53;;;;;;;1.60;1.00;;;24.20;87.60;;;;;;5030447;28;20858;-38
2022/06/28 12:02:50;;;;;;;2.20;0.90;;;24.20;90.70;;;;;;5030494;28;20516;-38
2022/06/28 12:05:31;;;;;;;1.23;0.93;;;24.30;89.80;;;;;;5011794;28;20449;-38
2022/06/28 12:07:57;;;;;;;0.90;0.80;;;24.40;90.40;;;;;;5029859;28;20512;-38
2022/06/28 12:10:24;;;;;;;1.40;0.93;;;24.50;89.40;;;;;;5030244;28;20469;-38
2022/06/28 12:12:51;;;;;;;2.17;1.20;;;24.30;87.60;;;;;;5030293;28;20425;-38
2022/06/28 12:15:25;;;;;;;3.23;1.07;;;24.30;87.50;;;;;;5030282;28;20496;-38
2022/06/28 12:17:51;;;;;;;2.30;1.10;;;24.30;88.70;;;;;;5029524;28;20437;-38
2022/06/28 12:20:18;;;;;;;1.53;1.27;;;24.30;85.90;;;;;;5030337;28;20432;-38
2022/06/28 12:22:55;;;;;;;2.30;1.20;;;24.30;87.30;;;;;;5030622;28;20465;-38
2022/06/28 12:25:21;;;;;;;1.83;1.30;;;24.20;86.30;;;;;;5030210;28;20436;-38
2022/06/28 12:27:47;;;;;;;2.50;1.20;;;24.10;84.20;;;;;;5029358;28;20432;-38
2022/06/28 12:30:12;;;;;;;1.77;1.00;;;24.10;85.10;;;;;;5029880;28;20289;-38
2022/06/28 12:32:40;;;;;;;2.90;1.57;;;24.00;84.70;;;;;;5030208;28;20201;-38
2022/06/28 12:35:08;;;;;;;2.03;1.40;;;23.90;89.00;;;;;;5029225;28;20220;-38
2022/06/28 12:37:34;;;;;;;1.77;1.20;;;24.00;87.20;;;;;;5029179;28;20429;-38
2022/06/28 12:40:01;;;;;;;4.20;1.23;;;24.00;85.20;;;;;;5029960;28;20437;-38
2022/06/28 12:42:27;;;;;;;1.20;1.10;;;24.10;83.90;;;;;;5029714;28;20425;-38
2022/06/28 12:44:54;;;;;;;1.57;1.20;;;24.20;82.90;;;;;;5029367;28;20795;-38
2022/06/28 12:47:20;;;;;;;1.60;1.27;;;24.00;84.40;;;;;;5028768;28;20429;-37
2022/06/28 12:49:46;;;;;;;3.30;1.43;;;24.10;85.20;;;;;;5029781;28;20831;-38
2022/06/28 12:52:11;;;;;;;4.20;1.40;;;24.10;83.30;;;;;;5029971;28;20699;-38
2022/06/28 12:54:38;;;;;;;2.00;1.30;;;24.10;86.70;;;;;;5029793;28;20214;-38
2022/06/28 12:57:04;;;;;;;1.77;1.00;;;24.10;83.10;;;;;;5029037;28;20179;-38
2022/06/28 12:59:30;;;;;;;3.03;1.40;;;24.20;84.90;;;;;;5029656;28;20879;-38
2022/06/28 13:01:56;;;;;;;1.87;1.23;;;24.30;85.50;;;;;;5029646;28;20422;-38